Time;durP1;ratioP1;P1;durP2;ratioP2;P2;SDS_P1;SDS_P2;PMS_P1;PMS_P2;Temp;Humidity;BMP_temperature;BMP_pressure;BME280_temperature;BME280_humidity;BME280_pressure;Samples;Min_cycle;Max_cycle;Signal;HPM_P1;HPM_P2
2021/09/13 00:01:55;;;;;;;4.53;4.13;;;21.40;99.90;;;;;;5089368;28;20228;-77
2021/09/13 00:04:22;;;;;;;7.50;4.00;;;21.30;99.90;;;;;;5080838;28;20595;-76
2021/09/13 00:06:49;;;;;;;4.10;3.80;;;21.30;99.90;;;;;;5081809;28;20240;-76
2021/09/13 00:09:16;;;;;;;3.90;3.60;;;21.20;99.90;;;;;;5074906;28;20653;-77
2021/09/13 00:11:43;;;;;;;4.30;3.85;;;21.20;99.90;;;;;;5084429;28;20310;-77
2021/09/13 00:14:11;;;;;;;4.00;3.70;;;21.20;99.90;;;;;;5077127;28;20226;-76
2021/09/13 00:16:38;;;;;;;3.78;3.47;;;21.10;99.90;;;;;;5076900;28;20229;-78
2021/09/13 00:19:07;;;;;;;3.95;3.65;;;21.10;99.90;;;;;;5074417;28;20225;-76
2021/09/13 00:21:34;;;;;;;4.63;4.22;;;21.00;99.90;;;;;;5076474;28;20768;-76
2021/09/13 00:24:01;;;;;;;4.15;3.80;;;21.00;99.90;;;;;;5073765;28;20806;-76
2021/09/13 00:26:28;;;;;;;5.85;3.63;;;21.00;99.90;;;;;;5074136;28;20218;-77
2021/09/13 00:28:55;;;;;;;4.68;4.28;;;21.00;99.90;;;;;;5077544;28;20607;-77
2021/09/13 00:31:22;;;;;;;4.55;4.05;;;21.00;99.90;;;;;;5073281;28;20646;-77
2021/09/13 00:33:49;;;;;;;4.10;3.80;;;21.00;99.90;;;;;;5075898;28;20653;-78
2021/09/13 00:36:17;;;;;;;4.10;3.65;;;20.90;99.90;;;;;;5074899;28;20320;-77
2021/09/13 00:38:45;;;;;;;4.60;4.20;;;20.90;99.90;;;;;;5078570;28;20280;-77
2021/09/13 00:41:12;;;;;;;4.05;3.72;;;20.90;99.90;;;;;;5072451;28;20315;-76
2021/09/13 00:43:39;;;;;;;4.30;3.97;;;20.90;99.90;;;;;;5078740;28;20233;-78
2021/09/13 00:46:06;;;;;;;4.32;3.97;;;20.90;99.90;;;;;;5078778;28;20589;-77
2021/09/13 00:48:33;;;;;;;4.03;3.70;;;20.90;99.90;;;;;;5079913;28;20217;-76
2021/09/13 00:51:00;;;;;;;3.72;3.42;;;20.90;99.90;;;;;;5077255;28;20283;-78
2021/09/13 00:53:32;;;;;;;4.50;4.10;;;20.90;99.90;;;;;;5081858;28;20229;-77
2021/09/13 00:56:00;;;;;;;4.20;3.90;;;20.90;99.90;;;;;;5094862;28;20244;-77
2021/09/13 00:58:29;;;;;;;4.65;4.25;;;20.90;99.90;;;;;;5076128;28;20225;-76
2021/09/13 01:00:57;;;;;;;4.50;4.10;;;20.80;99.90;;;;;;5075621;28;20217;-77
2021/09/13 01:03:24;;;;;;;4.63;4.15;;;20.80;99.90;;;;;;5078396;28;20287;-77
2021/09/13 01:05:52;;;;;;;4.80;4.40;;;20.70;99.90;;;;;;5079531;28;20221;-77
2021/09/13 01:08:19;;;;;;;4.35;4.03;;;20.70;99.90;;;;;;5074117;28;20218;-77
2021/09/13 01:10:49;;;;;;;4.30;4.00;;;20.70;99.90;;;;;;5078861;28;20282;-77
2021/09/13 01:13:16;;;;;;;4.80;4.40;;;20.60;99.90;;;;;;5076907;28;22497;-77
2021/09/13 01:15:43;;;;;;;4.53;4.15;;;20.60;99.90;;;;;;5076428;28;20932;-77
2021/09/13 01:18:11;;;;;;;4.03;3.72;;;20.60;99.90;;;;;;5075016;28;20274;-77
2021/09/13 01:20:38;;;;;;;4.50;4.20;;;20.60;99.90;;;;;;5076094;28;20286;-76
2021/09/13 01:23:08;;;;;;;4.13;3.72;;;20.60;99.90;;;;;;5080381;28;20267;-76
2021/09/13 01:25:37;;;;;;;5.03;4.50;;;20.60;99.90;;;;;;5073087;28;20288;-76
2021/09/13 01:28:05;;;;;;;4.50;4.15;;;20.60;99.90;;;;;;5076968;28;20274;-77
2021/09/13 01:30:33;;;;;;;5.00;4.50;;;20.60;99.90;;;;;;5078424;28;20613;-78
2021/09/13 01:33:00;;;;;;;5.07;4.68;;;20.60;99.90;;;;;;5078891;28;20233;-77
2021/09/13 01:35:27;;;;;;;5.05;4.65;;;20.60;99.90;;;;;;5079944;28;20221;-77
2021/09/13 01:37:54;;;;;;;4.72;4.32;;;20.60;99.90;;;;;;5079057;28;20229;-77
2021/09/13 01:40:21;;;;;;;4.50;4.20;;;20.60;99.90;;;;;;5072124;28;20232;-77
2021/09/13 01:42:49;;;;;;;4.55;4.15;;;20.60;99.90;;;;;;5078233;28;20218;-77
2021/09/13 01:45:16;;;;;;;4.72;4.10;;;20.50;99.90;;;;;;5076245;28;20238;-77
2021/09/13 01:47:45;;;;;;;4.43;4.13;;;20.50;99.90;;;;;;5085765;28;20217;-77
2021/09/13 01:50:12;;;;;;;4.43;4.07;;;20.50;99.90;;;;;;5090260;28;20232;-76
2021/09/13 01:52:39;;;;;;;4.43;4.13;;;20.40;99.90;;;;;;5077063;28;20845;-77
2021/09/13 01:55:07;;;;;;;4.82;4.43;;;20.40;99.90;;;;;;5078496;28;20237;-77
2021/09/13 01:57:34;;;;;;;4.85;4.45;;;20.40;99.90;;;;;;5080658;28;20209;-77
2021/09/13 02:00:02;;;;;;;4.72;4.32;;;20.40;99.90;;;;;;5077411;28;20226;-77
2021/09/13 02:02:29;;;;;;;4.72;4.35;;;20.40;99.90;;;;;;5077036;28;20233;-77
2021/09/13 02:04:56;;;;;;;4.38;4.07;;;20.30;99.90;;;;;;5080334;28;20286;-76
2021/09/13 02:07:23;;;;;;;4.60;4.20;;;20.30;99.90;;;;;;5080674;28;20764;-76
2021/09/13 02:09:52;;;;;;;4.75;4.35;;;20.30;99.90;;;;;;5074415;28;20231;-76
2021/09/13 02:12:20;;;;;;;4.88;4.47;;;20.30;99.90;;;;;;5082470;28;20225;-78
2021/09/13 02:14:47;;;;;;;4.78;4.38;;;20.30;99.90;;;;;;5077095;28;20258;-78
2021/09/13 02:17:17;;;;;;;4.88;4.47;;;20.20;99.90;;;;;;5077834;28;20223;-76
2021/09/13 02:19:44;;;;;;;5.20;4.72;;;20.20;99.90;;;;;;5077486;28;20669;-77
2021/09/13 02:22:11;;;;;;;4.55;4.15;;;20.20;99.90;;;;;;5081689;28;20229;-77
2021/09/13 02:24:38;;;;;;;5.43;4.93;;;20.10;99.90;;;;;;5080948;28;20232;-77
2021/09/13 02:27:06;;;;;;;5.07;4.68;;;20.10;99.90;;;;;;5082560;28;20731;-77
2021/09/13 02:29:33;;;;;;;4.68;4.22;;;20.10;99.90;;;;;;5078141;28;20261;-77
2021/09/13 02:32:00;;;;;;;4.93;4.53;;;20.10;99.90;;;;;;5075983;28;20229;-78
2021/09/13 02:34:29;;;;;;;4.70;4.30;;;20.10;99.90;;;;;;5074103;28;20715;-77
2021/09/13 02:36:56;;;;;;;4.72;4.40;;;20.10;99.90;;;;;;5087736;28;20217;-77
2021/09/13 02:39:23;;;;;;;4.90;4.55;;;20.10;99.90;;;;;;5081468;28;20229;-77
2021/09/13 02:41:50;;;;;;;4.53;4.13;;;20.10;99.90;;;;;;5079554;28;20222;-77
2021/09/13 02:44:18;;;;;;;4.93;4.53;;;20.00;99.90;;;;;;5090819;28;20282;-76
2021/09/13 02:46:45;;;;;;;4.88;4.47;;;20.00;99.90;;;;;;5074541;28;20229;-76
2021/09/13 02:49:12;;;;;;;4.20;3.90;;;20.00;99.90;;;;;;5082781;28;20221;-79
2021/09/13 02:51:41;;;;;;;4.32;4.03;;;20.00;99.90;;;;;;5071207;28;20225;-77
2021/09/13 02:54:08;;;;;;;4.60;4.20;;;19.90;99.90;;;;;;5077927;28;20275;-76
2021/09/13 02:56:35;;;;;;;4.93;4.57;;;20.00;99.90;;;;;;5076496;28;20621;-77
2021/09/13 02:59:02;;;;;;;4.68;4.28;;;20.00;99.90;;;;;;5079001;28;20233;-77
2021/09/13 03:01:29;;;;;;;4.78;4.38;;;19.90;99.90;;;;;;5081373;28;21247;-77
2021/09/13 03:03:56;;;;;;;4.85;4.45;;;19.90;99.90;;;;;;5080529;28;20637;-76
2021/09/13 03:06:23;;;;;;;4.65;4.25;;;19.90;99.90;;;;;;5081704;28;20706;-77
2021/09/13 03:08:52;;;;;;;4.95;4.47;;;19.90;99.90;;;;;;5077204;28;20225;-77
2021/09/13 03:11:19;;;;;;;5.53;4.97;;;19.90;99.90;;;;;;5084061;28;20241;-79
2021/09/13 03:13:46;;;;;;;4.35;3.95;;;19.80;99.90;;;;;;5074209;28;20234;-77
2021/09/13 03:16:13;;;;;;;4.85;4.47;;;19.80;99.90;;;;;;5077531;28;20261;-78
2021/09/13 03:18:40;;;;;;;5.57;4.95;;;19.80;99.90;;;;;;5076146;28;20723;-78
2021/09/13 03:21:07;;;;;;;5.20;4.70;;;19.70;99.90;;;;;;5080132;28;20221;-77
2021/09/13 03:23:34;;;;;;;4.50;4.20;;;19.70;99.90;;;;;;5082712;28;20221;-78
2021/09/13 03:26:03;;;;;;;4.72;4.25;;;19.70;99.90;;;;;;5078104;28;20695;-77
2021/09/13 03:28:30;;;;;;;4.60;4.20;;;19.60;99.90;;;;;;5076257;28;20226;-79
2021/09/13 03:30:57;;;;;;;4.53;4.13;;;19.60;99.90;;;;;;5072802;28;20274;-77
2021/09/13 03:33:24;;;;;;;5.03;4.63;;;19.60;99.90;;;;;;5074435;28;20700;-77
2021/09/13 03:35:51;;;;;;;4.90;4.50;;;19.60;99.90;;;;;;5081932;28;20230;-79
2021/09/13 03:38:18;;;;;;;4.95;4.55;;;19.50;99.90;;;;;;5089447;28;20270;-77
2021/09/13 03:40:45;;;;;;;5.18;4.78;;;19.50;99.90;;;;;;5077852;28;20247;-77
2021/09/13 03:43:14;;;;;;;5.07;4.72;;;19.50;99.90;;;;;;5078932;28;20945;-77
2021/09/13 03:45:41;;;;;;;5.78;4.68;;;19.50;99.90;;;;;;5084752;28;20282;-76
2021/09/13 03:48:08;;;;;;;5.20;4.80;;;19.50;99.90;;;;;;5080647;28;20221;-78
2021/09/13 03:50:36;;;;;;;5.28;4.78;;;19.50;99.90;;;;;;5081708;28;20271;-77
2021/09/13 03:53:03;;;;;;;4.70;4.40;;;19.40;99.90;;;;;;5080437;28;20363;-77
2021/09/13 03:55:32;;;;;;;4.80;4.45;;;19.40;99.90;;;;;;5081383;28;20229;-77
2021/09/13 03:57:59;;;;;;;5.30;4.90;;;19.40;99.90;;;;;;5077352;28;20738;-76
2021/09/13 04:00:27;;;;;;;5.15;4.75;;;19.40;99.90;;;;;;5079245;28;20213;-77
2021/09/13 04:02:54;;;;;;;5.25;4.75;;;19.40;99.90;;;;;;5075235;28;20222;-77
2021/09/13 04:05:23;;;;;;;5.00;4.50;;;19.40;99.90;;;;;;5079834;28;20274;-77
2021/09/13 04:08:11;;;;;;;5.63;5.13;;;19.30;99.90;;;;;;5073442;28;20222;-75
2021/09/13 04:10:41;;;;;;;5.15;4.72;;;19.30;99.90;;;;;;5081109;28;20228;-77
2021/09/13 04:13:08;;;;;;;5.22;4.82;;;19.30;99.90;;;;;;5083710;28;20304;-77
2021/09/13 04:15:36;;;;;;;5.65;5.25;;;19.30;99.90;;;;;;5077595;28;20224;-76
2021/09/13 04:18:04;;;;;;;5.72;5.32;;;19.30;99.90;;;;;;5078650;28;20222;-77
2021/09/13 04:20:31;;;;;;;5.07;4.68;;;19.30;99.90;;;;;;5079337;28;20228;-77
2021/09/13 04:22:58;;;;;;;5.18;4.78;;;19.30;99.90;;;;;;5081377;28;20217;-78
2021/09/13 04:25:25;;;;;;;4.82;4.43;;;19.40;99.90;;;;;;5082778;28;20241;-77
2021/09/13 04:27:52;;;;;;;4.88;4.35;;;19.30;99.90;;;;;;5079721;28;20214;-79
2021/09/13 04:30:20;;;;;;;4.93;4.53;;;19.30;99.90;;;;;;5087299;28;20221;-79
2021/09/13 04:32:49;;;;;;;5.20;4.70;;;19.30;99.90;;;;;;5080911;28;20245;-79
2021/09/13 04:35:16;;;;;;;4.55;4.22;;;19.30;99.90;;;;;;5079727;28;20730;-79
2021/09/13 04:37:43;;;;;;;4.80;4.40;;;19.30;99.90;;;;;;5075082;28;20228;-79
2021/09/13 04:40:13;;;;;;;4.90;4.50;;;19.20;99.90;;;;;;5079740;28;20222;-79
2021/09/13 04:42:40;;;;;;;4.65;4.25;;;19.20;99.90;;;;;;5077535;28;20606;-80
2021/09/13 04:45:08;;;;;;;4.57;4.18;;;19.20;99.90;;;;;;5073263;28;20762;-79
2021/09/13 04:47:35;;;;;;;4.75;4.35;;;19.20;99.90;;;;;;5075851;28;20221;-78
2021/09/13 04:50:04;;;;;;;4.40;4.10;;;19.10;99.90;;;;;;5075324;28;20242;-79
2021/09/13 04:52:31;;;;;;;4.53;4.22;;;19.10;99.90;;;;;;5075621;28;20233;-79
2021/09/13 04:54:58;;;;;;;4.13;3.83;;;19.10;99.90;;;;;;5075488;28;20278;-79
2021/09/13 04:57:25;;;;;;;4.70;4.30;;;19.00;99.90;;;;;;5077852;28;20290;-79
2021/09/13 04:59:52;;;;;;;4.40;4.00;;;19.10;99.90;;;;;;5075939;28;20221;-77
2021/09/13 05:02:19;;;;;;;4.10;3.80;;;19.10;99.90;;;;;;5071684;28;20275;-77
2021/09/13 05:04:46;;;;;;;4.72;4.32;;;19.10;99.90;;;;;;5078392;28;20230;-78
2021/09/13 05:07:15;;;;;;;4.28;3.97;;;19.10;99.90;;;;;;5074994;28;20762;-80
2021/09/13 05:09:42;;;;;;;5.85;4.65;;;19.00;99.90;;;;;;5074738;28;20794;-80
2021/09/13 05:12:09;;;;;;;5.47;4.97;;;19.10;99.90;;;;;;5079505;28;20282;-79
2021/09/13 05:14:36;;;;;;;5.55;5.05;;;19.00;99.90;;;;;;5077519;28;20290;-79
2021/09/13 05:17:03;;;;;;;5.10;4.60;;;19.10;99.90;;;;;;5077841;28;20218;-80
2021/09/13 05:19:31;;;;;;;5.05;4.65;;;19.10;99.90;;;;;;5079657;28;20222;-79
2021/09/13 05:21:58;;;;;;;4.72;4.32;;;19.20;99.90;;;;;;5084160;28;20943;-79
2021/09/13 05:24:27;;;;;;;5.13;4.70;;;19.20;99.90;;;;;;5088582;28;20220;-80
2021/09/13 05:26:54;;;;;;;4.88;4.47;;;19.20;99.90;;;;;;5085525;28;20224;-78
2021/09/13 05:29:21;;;;;;;4.97;4.57;;;19.20;99.90;;;;;;5072557;28;20217;-76
2021/09/13 05:31:48;;;;;;;5.53;5.03;;;19.40;99.90;;;;;;5064375;28;20230;-76
2021/09/13 05:34:16;;;;;;;5.15;4.65;;;19.50;99.90;;;;;;5071380;28;20241;-77
2021/09/13 05:36:43;;;;;;;5.65;5.13;;;19.60;99.90;;;;;;5071000;28;20244;-77
2021/09/13 05:39:10;;;;;;;4.68;4.28;;;19.60;99.90;;;;;;5072292;28;20276;-78
2021/09/13 05:41:38;;;;;;;5.55;5.03;;;19.60;99.90;;;;;;5074206;28;20952;-78
2021/09/13 05:44:06;;;;;;;5.10;4.70;;;19.80;99.90;;;;;;5077340;28;20225;-77
2021/09/13 05:46:33;;;;;;;4.43;4.05;;;20.00;99.90;;;;;;5079620;28;20222;-78
2021/09/13 05:49:00;;;;;;;4.65;4.32;;;20.10;99.90;;;;;;5071843;28;20228;-78
2021/09/13 05:51:28;;;;;;;5.82;4.80;;;20.20;99.90;;;;;;5073514;28;20754;-76
2021/09/13 05:53:55;;;;;;;5.32;4.93;;;20.40;99.90;;;;;;5071366;28;20222;-78
2021/09/13 05:56:22;;;;;;;5.18;4.75;;;20.60;99.90;;;;;;5070575;28;20702;-77
2021/09/13 05:58:50;;;;;;;5.32;4.93;;;20.80;99.90;;;;;;5069461;28;20225;-75
2021/09/13 06:01:17;;;;;;;5.53;5.13;;;20.90;99.90;;;;;;5073642;28;20221;-75
2021/09/13 06:03:44;;;;;;;5.20;4.78;;;21.10;99.90;;;;;;5070440;28;20236;-77
2021/09/13 06:06:11;;;;;;;5.80;5.30;;;21.20;99.90;;;;;;5072036;28;20229;-77
2021/09/13 06:08:39;;;;;;;6.18;5.57;;;21.30;99.90;;;;;;5069294;28;20245;-77
2021/09/13 06:11:06;;;;;;;6.22;5.72;;;21.20;99.90;;;;;;5075529;28;20213;-76
2021/09/13 06:13:33;;;;;;;5.93;5.43;;;21.30;99.90;;;;;;5070448;28;20221;-78
2021/09/13 06:16:02;;;;;;;6.28;5.68;;;21.40;99.90;;;;;;5075018;28;20610;-78
2021/09/13 06:18:29;;;;;;;5.65;5.15;;;21.50;99.90;;;;;;5070431;28;20228;-77
2021/09/13 06:20:56;;;;;;;6.63;5.90;;;21.60;99.90;;;;;;5077072;28;20221;-77
2021/09/13 06:23:23;;;;;;;6.03;5.53;;;21.60;99.90;;;;;;5072132;28;20221;-77
2021/09/13 06:25:50;;;;;;;6.15;5.63;;;21.60;99.90;;;;;;5073714;28;20233;-76
2021/09/13 06:28:17;;;;;;;6.13;5.60;;;21.60;99.90;;;;;;5074923;28;20229;-78
2021/09/13 06:30:44;;;;;;;6.38;5.88;;;21.80;99.90;;;;;;5066940;28;20229;-77
2021/09/13 06:33:13;;;;;;;6.70;6.10;;;21.80;99.90;;;;;;5073760;28;20575;-78
2021/09/13 06:35:40;;;;;;;6.50;5.90;;;21.90;99.90;;;;;;5068677;28;20214;-78
2021/09/13 06:38:07;;;;;;;5.85;5.35;;;22.00;99.90;;;;;;5071698;28;20226;-78
2021/09/13 06:40:35;;;;;;;6.47;5.80;;;22.00;99.90;;;;;;5067738;28;20247;-78
2021/09/13 06:43:02;;;;;;;5.90;5.40;;;22.00;99.90;;;;;;5074196;28;20259;-77
2021/09/13 06:45:39;;;;;;;5.78;5.28;;;21.90;99.90;;;;;;5075046;28;20233;-77
2021/09/13 06:48:06;;;;;;;6.07;5.47;;;22.00;99.90;;;;;;5072922;28;20228;-78
2021/09/13 06:50:34;;;;;;;6.63;5.93;;;22.10;99.90;;;;;;5073752;28;20278;-77
2021/09/13 06:53:02;;;;;;;5.93;5.45;;;22.10;99.90;;;;;;5074283;28;20225;-77
2021/09/13 06:55:29;;;;;;;6.03;5.63;;;22.10;99.90;;;;;;5072366;28;20229;-77
2021/09/13 06:57:56;;;;;;;6.43;5.93;;;22.10;99.90;;;;;;5076039;28;20558;-78
2021/09/13 07:00:23;;;;;;;6.07;5.47;;;22.00;99.90;;;;;;5075629;28;20247;-79
2021/09/13 07:03:04;;;;;;;5.93;5.47;;;22.00;99.90;;;;;;5075185;28;20581;-77
2021/09/13 07:05:31;;;;;;;6.38;5.88;;;22.10;99.90;;;;;;5075499;28;20642;-78
2021/09/13 07:07:59;;;;;;;6.88;5.38;;;22.30;99.90;;;;;;5074790;28;20228;-77
2021/09/13 07:10:26;;;;;;;6.47;5.97;;;22.60;99.90;;;;;;5076088;28;20218;-78
2021/09/13 07:12:53;;;;;;;6.30;5.70;;;22.70;99.90;;;;;;5091071;28;20286;-80
2021/09/13 07:15:21;;;;;;;6.70;6.18;;;22.80;99.90;;;;;;5074111;28;20320;-78
2021/09/13 07:17:48;;;;;;;7.35;5.80;;;22.90;99.90;;;;;;5073078;28;20233;-78
2021/09/13 07:20:15;;;;;;;6.57;6.07;;;22.70;99.90;;;;;;5076210;28;20244;-77
2021/09/13 07:22:43;;;;;;;6.82;6.22;;;22.50;99.90;;;;;;5071516;28;20217;-77
2021/09/13 07:25:12;;;;;;;6.90;6.28;;;22.20;99.90;;;;;;5068400;28;20225;-79
2021/09/13 07:27:40;;;;;;;6.07;5.57;;;22.00;99.90;;;;;;5067930;28;20221;-79
2021/09/13 07:30:08;;;;;;;5.72;5.18;;;21.80;99.90;;;;;;5068262;28;20230;-77
2021/09/13 07:32:35;;;;;;;6.07;5.63;;;21.90;99.90;;;;;;5077277;28;20217;-79
2021/09/13 07:35:02;;;;;;;6.00;5.50;;;21.90;99.90;;;;;;5065513;28;20221;-78
2021/09/13 07:37:29;;;;;;;6.35;5.85;;;22.00;99.90;;;;;;5071017;28;20232;-80
2021/09/13 07:39:56;;;;;;;6.05;5.57;;;22.10;99.90;;;;;;5068350;28;20221;-77
2021/09/13 07:42:25;;;;;;;6.13;5.63;;;22.30;99.90;;;;;;5067191;28;20221;-78
2021/09/13 07:44:52;;;;;;;7.03;6.43;;;22.60;99.90;;;;;;5069922;28;20709;-78
2021/09/13 07:47:19;;;;;;;6.53;5.90;;;22.70;99.90;;;;;;5070952;28;21059;-78
2021/09/13 07:49:46;;;;;;;6.72;6.13;;;22.80;99.90;;;;;;5069827;28;20227;-76
2021/09/13 07:52:14;;;;;;;6.35;5.85;;;23.20;99.90;;;;;;5063682;28;20277;-78
2021/09/13 07:54:41;;;;;;;9.55;7.28;;;23.50;99.90;;;;;;5063862;28;20225;-76
2021/09/13 07:57:09;;;;;;;8.25;6.20;;;23.60;99.90;;;;;;5063865;28;20214;-77
2021/09/13 07:59:37;;;;;;;7.78;5.93;;;23.70;99.90;;;;;;5066724;28;20290;-78
2021/09/13 08:02:04;;;;;;;7.13;6.53;;;23.90;99.90;;;;;;5060708;28;20316;-77
2021/09/13 08:04:31;;;;;;;6.82;6.22;;;23.80;99.90;;;;;;5066874;28;20229;-79
2021/09/13 08:06:58;;;;;;;6.88;6.28;;;23.90;99.90;;;;;;5069459;28;20236;-79
2021/09/13 08:09:25;;;;;;;6.90;6.32;;;24.00;99.90;;;;;;5067219;28;20229;-79
2021/09/13 08:11:52;;;;;;;6.82;6.07;;;24.10;99.90;;;;;;5073121;28;20224;-76
2021/09/13 08:14:19;;;;;;;7.10;6.50;;;24.10;99.90;;;;;;5070756;28;20310;-78
2021/09/13 08:16:49;;;;;;;7.18;6.47;;;24.30;99.90;;;;;;5069723;28;21748;-77
2021/09/13 08:19:16;;;;;;;6.45;5.95;;;24.40;99.90;;;;;;5063615;28;20737;-78
2021/09/13 08:21:44;;;;;;;6.57;6.05;;;24.50;99.90;;;;;;5070239;28;20213;-78
2021/09/13 08:24:11;;;;;;;7.10;6.40;;;24.70;99.90;;;;;;5068227;28;20730;-78
2021/09/13 08:26:39;;;;;;;6.70;6.20;;;24.80;99.90;;;;;;5065670;28;20465;-76
2021/09/13 08:29:13;;;;;;;6.45;5.95;;;24.70;99.90;;;;;;5064781;28;20653;-78
2021/09/13 08:31:40;;;;;;;7.32;6.63;;;24.50;99.90;;;;;;5068417;28;20762;-77
2021/09/13 08:34:08;;;;;;;6.72;6.13;;;24.40;99.90;;;;;;5061510;28;20230;-78
2021/09/13 08:36:35;;;;;;;7.78;7.05;;;24.50;99.90;;;;;;5066230;28;20214;-77
2021/09/13 08:39:03;;;;;;;6.20;5.70;;;24.60;99.90;;;;;;5060535;28;20653;-77
2021/09/13 08:41:32;;;;;;;6.50;6.00;;;24.40;99.90;;;;;;5065014;28;20237;-78
2021/09/13 08:44:00;;;;;;;6.32;5.82;;;24.60;99.90;;;;;;5064262;28;21027;-77
2021/09/13 08:46:36;;;;;;;6.72;6.13;;;24.80;99.90;;;;;;5067939;28;20289;-77
2021/09/13 08:49:06;;;;;;;6.32;5.82;;;25.00;99.90;;;;;;5065525;28;20228;-77
2021/09/13 08:51:34;;;;;;;7.57;6.70;;;25.20;99.90;;;;;;5061259;28;20222;-76
2021/09/13 08:54:06;;;;;;;5.40;5.00;;;25.50;99.90;;;;;;5068616;28;20233;-77
2021/09/13 08:56:40;;;;;;;7.03;6.28;;;25.50;99.90;;;;;;5066782;28;20233;-77
2021/09/13 08:59:14;;;;;;;6.55;5.95;;;25.40;99.90;;;;;;5065704;28;20412;-77
2021/09/13 09:01:41;;;;;;;6.25;5.68;;;25.20;99.90;;;;;;5069163;28;20695;-78
2021/09/13 09:04:11;;;;;;;5.97;5.47;;;25.10;99.90;;;;;;5062771;28;20225;-77
2021/09/13 09:06:41;;;;;;;6.65;6.05;;;25.20;99.90;;;;;;5064849;28;20225;-76
2021/09/13 09:09:10;;;;;;;6.30;5.80;;;25.40;99.90;;;;;;5065724;28;20952;-76
2021/09/13 09:11:53;;;;;;;7.32;6.63;;;25.50;99.90;;;;;;5065858;28;20225;-76
2021/09/13 09:14:40;;;;;;;6.28;5.78;;;25.30;99.90;;;;;;5060691;28;20245;-76
2021/09/13 09:17:10;;;;;;;5.93;5.43;;;25.50;99.90;;;;;;5033112;28;20304;-77
2021/09/13 09:19:38;;;;;;;6.95;6.25;;;25.70;99.90;;;;;;5067694;28;20714;-76
2021/09/13 09:22:25;;;;;;;6.78;6.28;;;26.00;99.90;;;;;;5068772;28;20237;-76
2021/09/13 09:24:54;;;;;;;6.97;6.45;;;25.90;99.90;;;;;;5067098;28;20290;-76
2021/09/13 09:27:22;;;;;;;6.47;5.88;;;25.90;99.90;;;;;;5064631;28;20239;-78
2021/09/13 09:29:49;;;;;;;6.65;6.07;;;25.80;99.90;;;;;;5069187;28;20241;-77
2021/09/13 09:32:22;;;;;;;8.20;5.80;;;25.90;99.90;;;;;;5063744;28;20350;-77
2021/09/13 09:34:50;;;;;;;6.68;6.00;;;26.20;99.90;;;;;;5068192;28;20286;-76
2021/09/13 09:37:18;;;;;;;7.50;6.80;;;26.30;99.90;;;;;;5064491;28;20229;-78
2021/09/13 09:39:49;;;;;;;6.68;6.07;;;26.30;99.90;;;;;;5062063;28;20221;-76
2021/09/13 09:42:29;;;;;;;6.55;5.97;;;26.20;99.90;;;;;;5061778;28;20302;-77
2021/09/13 09:44:57;;;;;;;6.30;5.70;;;26.00;99.90;;;;;;5062306;28;20615;-76
2021/09/13 09:47:25;;;;;;;6.20;5.70;;;25.90;99.90;;;;;;5064897;28;20298;-77
2021/09/13 09:49:54;;;;;;;7.05;6.43;;;26.00;99.90;;;;;;5063697;28;20236;-78
2021/09/13 09:52:32;;;;;;;6.47;5.97;;;26.40;99.90;;;;;;5062319;28;20304;-77
2021/09/13 09:55:15;;;;;;;6.45;5.93;;;26.60;99.90;;;;;;5061444;28;20290;-76
2021/09/13 09:57:44;;;;;;;6.43;5.82;;;26.70;99.90;;;;;;5063173;28;20221;-76
2021/09/13 10:00:28;;;;;;;6.90;6.28;;;26.70;99.90;;;;;;5060411;28;20229;-76
2021/09/13 10:02:56;;;;;;;6.10;5.53;;;27.00;99.90;;;;;;5061437;28;20230;-77
2021/09/13 10:05:25;;;;;;;6.70;6.10;;;27.00;99.90;;;;;;5066157;28;20331;-77
2021/09/13 10:07:53;;;;;;;7.03;6.45;;;26.90;99.90;;;;;;5067412;28;20226;-76
2021/09/13 10:10:24;;;;;;;7.03;6.03;;;26.90;99.90;;;;;;5066670;28;20244;-77
2021/09/13 10:12:51;;;;;;;6.43;5.78;;;27.10;99.90;;;;;;5065694;28;20359;-77
2021/09/13 10:15:18;;;;;;;6.30;5.75;;;27.10;99.90;;;;;;5065074;28;20236;-76
2021/09/13 10:17:46;;;;;;;6.63;6.13;;;27.30;99.90;;;;;;5064725;28;20232;-77
2021/09/13 10:20:14;;;;;;;7.00;6.18;;;27.40;99.90;;;;;;5065374;28;20439;-76
2021/09/13 10:22:43;;;;;;;6.05;5.55;;;27.40;99.90;;;;;;5069582;28;20685;-76
2021/09/13 10:25:12;;;;;;;5.90;5.40;;;27.20;99.90;;;;;;5067016;28;20233;-77
2021/09/13 10:27:42;;;;;;;6.82;6.22;;;27.30;99.90;;;;;;5066052;28;20225;-76
2021/09/13 10:30:18;;;;;;;6.70;6.20;;;27.30;99.90;;;;;;5068151;28;20240;-77
2021/09/13 10:32:46;;;;;;;6.03;5.53;;;27.20;99.90;;;;;;5067146;28;20626;-77
2021/09/13 10:35:15;;;;;;;6.22;5.72;;;27.20;99.90;;;;;;5063433;28;20233;-76
2021/09/13 10:37:45;;;;;;;6.95;6.35;;;27.30;99.90;;;;;;5063584;28;20209;-77
2021/09/13 10:40:27;;;;;;;6.38;5.70;;;27.40;99.90;;;;;;5071182;28;20222;-77
2021/09/13 10:42:57;;;;;;;6.18;5.63;;;27.50;99.90;;;;;;5068546;28;20969;-77
2021/09/13 10:45:29;;;;;;;7.10;6.40;;;27.60;99.90;;;;;;5063715;28;20225;-77
2021/09/13 10:48:08;;;;;;;6.53;5.90;;;27.60;99.90;;;;;;5066910;28;20266;-76
2021/09/13 10:50:41;;;;;;;6.47;5.97;;;27.90;99.90;;;;;;5064999;28;20222;-76
2021/09/13 10:53:31;;;;;;;5.80;5.30;;;28.10;99.90;;;;;;5065221;28;20755;-75
2021/09/13 10:56:01;;;;;;;6.03;5.43;;;28.10;99.90;;;;;;5067069;28;21072;-77
2021/09/13 10:58:42;;;;;;;6.65;6.07;;;28.40;99.90;;;;;;5066375;28;20722;-76
2021/09/13 11:01:11;;;;;;;7.00;6.30;;;28.40;99.90;;;;;;5064215;28;20220;-76
2021/09/13 11:03:43;;;;;;;6.20;5.70;;;28.40;99.90;;;;;;5066042;28;20742;-76
2021/09/13 11:06:47;;;;;;;6.55;5.60;;;28.20;99.90;;;;;;5061692;28;20221;-77
2021/09/13 11:09:22;;;;;;;6.55;5.85;;;28.10;99.90;;;;;;5062513;28;20224;-77
2021/09/13 11:12:10;;;;;;;6.00;5.30;;;28.10;99.90;;;;;;5062651;28;20297;-75
2021/09/13 11:14:38;;;;;;;6.10;5.60;;;28.30;99.90;;;;;;5063916;28;20910;-76
2021/09/13 11:17:05;;;;;;;6.45;5.88;;;28.30;99.90;;;;;;5064117;28;20278;-77
2021/09/13 11:19:33;;;;;;;6.50;5.90;;;28.30;99.90;;;;;;5068649;28;20276;-76
2021/09/13 11:22:01;;;;;;;6.07;5.68;;;28.50;99.90;;;;;;5060213;28;20312;-76
2021/09/13 11:24:30;;;;;;;5.80;5.38;;;28.50;99.90;;;;;;5066495;28;20222;-76
2021/09/13 11:27:02;;;;;;;6.00;5.50;;;28.60;99.90;;;;;;5061491;28;20222;-76
2021/09/13 11:29:32;;;;;;;5.35;4.90;;;28.60;99.90;;;;;;5063473;28;20225;-76
2021/09/13 11:32:03;;;;;;;6.03;5.10;;;28.60;99.90;;;;;;5067478;28;20276;-76
2021/09/13 11:34:32;;;;;;;5.50;5.00;;;28.70;99.90;;;;;;5065619;28;20233;-76
2021/09/13 11:37:03;;;;;;;5.68;5.18;;;28.80;99.90;;;;;;5067919;28;20229;-76
2021/09/13 11:39:32;;;;;;;5.82;5.22;;;28.70;99.90;;;;;;5062528;28;20238;-77
2021/09/13 11:42:05;;;;;;;6.32;5.45;;;28.50;99.90;;;;;;5063326;28;20236;-75
2021/09/13 11:44:42;;;;;;;5.22;4.80;;;28.40;99.90;;;;;;5066584;28;20226;-77
2021/09/13 11:47:13;;;;;;;6.03;5.60;;;28.40;99.90;;;;;;5068578;28;20274;-77
2021/09/13 11:49:41;;;;;;;5.68;5.07;;;28.40;99.90;;;;;;5067024;28;20217;-77
2021/09/13 11:52:12;;;;;;;5.45;5.05;;;28.40;99.90;;;;;;5068592;28;20217;-76
2021/09/13 11:54:48;;;;;;;5.18;4.78;;;28.40;99.90;;;;;;5060990;28;20232;-76
2021/09/13 11:57:43;;;;;;;5.38;4.97;;;28.60;99.90;;;;;;5065061;28;20220;-76
2021/09/13 12:00:14;;;;;;;5.28;4.78;;;28.90;99.90;;;;;;5063539;28;20484;-76
2021/09/13 12:02:45;;;;;;;5.97;5.38;;;29.00;99.90;;;;;;5065237;28;20264;-76
2021/09/13 12:05:15;;;;;;;6.00;5.50;;;29.10;99.90;;;;;;5061942;28;20286;-77
2021/09/13 12:07:44;;;;;;;5.93;5.43;;;28.80;99.90;;;;;;5061435;28;20742;-76
2021/09/13 12:10:12;;;;;;;5.80;5.30;;;28.90;99.90;;;;;;5063226;28;20236;-77
2021/09/13 12:12:44;;;;;;;5.70;5.30;;;28.80;99.90;;;;;;5073647;28;21070;-77
2021/09/13 12:15:13;;;;;;;4.85;4.50;;;28.80;99.90;;;;;;5065298;28;20308;-77
2021/09/13 12:17:44;;;;;;;5.50;5.10;;;28.90;99.90;;;;;;5070063;28;20225;-81
2021/09/13 12:20:22;;;;;;;5.88;5.25;;;29.10;99.90;;;;;;5076920;28;20225;-78
2021/09/13 12:22:57;;;;;;;6.10;5.60;;;29.10;99.90;;;;;;5070104;28;20217;-78
2021/09/13 12:25:26;;;;;;;5.53;4.55;;;29.00;99.90;;;;;;5068719;28;20273;-79
2021/09/13 12:27:55;;;;;;;5.40;4.93;;;29.00;99.90;;;;;;5064657;28;20228;-78
2021/09/13 12:30:24;;;;;;;5.78;5.28;;;29.00;99.90;;;;;;5075704;28;20638;-79
2021/09/13 12:32:58;;;;;;;5.45;4.72;;;29.10;99.90;;;;;;5075016;28;20226;-79
2021/09/13 12:35:42;;;;;;;5.70;4.78;;;29.10;99.90;;;;;;5076899;28;20881;-78
2021/09/13 12:38:12;;;;;;;5.15;4.75;;;29.10;99.90;;;;;;5073545;28;21026;-78
2021/09/13 12:40:54;;;;;;;5.03;4.63;;;29.00;99.90;;;;;;5070911;28;20236;-77
2021/09/13 12:43:24;;;;;;;5.13;4.70;;;29.10;99.90;;;;;;5065562;28;20222;-78
2021/09/13 12:46:04;;;;;;;7.97;5.28;;;29.40;99.90;;;;;;5067510;28;20217;-78
2021/09/13 12:48:34;;;;;;;5.28;4.78;;;29.50;99.90;;;;;;5059419;28;20221;-76
2021/09/13 12:51:01;;;;;;;6.15;4.88;;;29.50;99.90;;;;;;5068174;28;20237;-78
2021/09/13 12:53:30;;;;;;;5.45;4.93;;;29.30;99.90;;;;;;5066576;28;20233;-78
2021/09/13 12:55:58;;;;;;;5.25;4.78;;;29.30;99.90;;;;;;5072016;28;20244;-79
2021/09/13 12:58:28;;;;;;;4.97;4.57;;;29.40;99.90;;;;;;5071039;28;20718;-78